Time;durP1;ratioP1;P1;durP2;ratioP2;P2;SDS_P1;SDS_P2;PMS_P1;PMS_P2;Temp;Humidity;BMP_temperature;BMP_pressure;BME280_temperature;BME280_humidity;BME280_pressure;Samples;Min_cycle;Max_cycle;Signal;HPM_P1;HPM_P2
2021/07/01 00:00:23;;;;;;;10.95;7.05;;;14.80;99.90;;;13.41;91.99;101082.31;3519568;39;102265;-43
2021/07/01 00:02:50;;;;;;;10.00;6.65;;;14.80;99.90;;;13.43;91.67;101079.38;3519641;39;102506;-43
2021/07/01 00:05:18;;;;;;;10.80;6.32;;;14.80;99.90;;;13.43;91.81;101073.88;3519697;40;102311;-42
2021/07/01 00:07:47;;;;;;;11.85;7.55;;;14.80;99.90;;;13.36;92.06;101066.53;3520189;39;102426;-42
2021/07/01 00:10:22;;;;;;;11.75;7.18;;;14.80;99.90;;;13.41;91.78;101073.25;3520016;39;103236;-42
2021/07/01 00:12:50;;;;;;;10.38;6.82;;;14.80;99.90;;;13.43;91.96;101080.22;3519983;39;102676;-42
2021/07/01 00:15:26;;;;;;;11.65;7.30;;;14.80;99.90;;;13.40;91.70;101077.03;3519370;39;104250;-41
2021/07/01 00:17:54;;;;;;;10.30;6.47;;;14.80;99.90;;;13.35;91.73;101078.56;3519851;40;103342;-41
2021/07/01 00:20:23;;;;;;;11.57;6.65;;;14.80;99.90;;;13.37;91.59;101084.66;3520072;39;102334;-42
2021/07/01 00:22:52;;;;;;;10.45;6.18;;;14.80;99.90;;;13.33;91.54;101080.69;3519696;39;102397;-41
2021/07/01 00:25:20;;;;;;;10.75;6.55;;;14.70;99.90;;;13.34;92.18;101082.38;3519361;39;102301;-41
2021/07/01 00:27:48;;;;;;;9.25;6.13;;;14.70;99.90;;;13.37;91.95;101081.91;3519859;39;102318;-41
2021/07/01 00:30:19;;;;;;;10.75;6.13;;;14.80;99.90;;;13.36;92.11;101088.47;3519809;39;104216;-42
2021/07/01 00:32:48;;;;;;;9.45;6.07;;;14.80;99.90;;;13.33;92.13;101088.91;3519818;39;102311;-41
2021/07/01 00:35:17;;;;;;;11.57;6.55;;;14.70;99.90;;;13.33;92.01;101083.44;3519322;39;102252;-41
2021/07/01 00:37:45;;;;;;;9.07;5.95;;;14.70;99.90;;;13.36;91.70;101082.13;3519679;39;102539;-41
2021/07/01 00:40:14;;;;;;;9.82;6.45;;;14.80;99.90;;;13.41;91.60;101079.56;3520006;40;102331;-41
2021/07/01 00:42:41;;;;;;;8.18;5.75;;;14.80;99.90;;;13.42;90.82;101085.88;3519667;39;103318;-41
2021/07/01 00:45:09;;;;;;;12.15;6.88;;;14.80;99.90;;;13.33;91.22;101077.97;3519691;39;102625;-41
2021/07/01 00:47:37;;;;;;;9.38;5.93;;;14.80;99.90;;;13.38;91.38;101086.34;3519540;39;102459;-42
2021/07/01 00:50:09;;;;;;;12.00;6.65;;;14.80;99.90;;;13.40;91.71;101085.28;3519398;39;102736;-41
2021/07/01 00:52:38;;;;;;;10.45;6.38;;;14.80;99.90;;;13.34;91.20;101093.34;3518512;40;105284;-41
2021/07/01 00:55:12;;;;;;;9.00;6.32;;;14.70;99.90;;;13.34;91.79;101090.59;3519539;39;104322;-41
2021/07/01 00:57:42;;;;;;;10.02;6.35;;;14.70;99.90;;;13.34;91.53;101093.34;3650413;22;103163;-40
2021/07/01 01:03:01;;;;;;;10.65;6.50;;;14.70;99.90;;;13.35;91.89;101089.53;3518784;39;102423;-40
2021/07/01 01:05:29;;;;;;;10.73;6.13;;;14.70;99.90;;;13.32;91.63;101086.38;3518580;40;102413;-40
2021/07/01 01:07:59;;;;;;;10.23;5.93;;;14.70;99.90;;;13.30;91.34;101086.63;3517079;39;103335;-40
2021/07/01 01:10:27;;;;;;;9.65;6.32;;;14.70;99.90;;;13.33;91.93;101093.53;3510536;40;103138;-40
2021/07/01 01:13:25;;;;;;;11.73;6.38;;;14.70;99.90;;;13.27;92.24;101091.72;3509829;40;102332;-39
2021/07/01 01:16:13;;;;;;;8.60;6.00;;;14.70;99.90;;;13.24;92.50;101085.63;3508794;40;103295;-40
2021/07/01 01:18:42;;;;;;;10.80;6.30;;;14.70;99.90;;;13.25;92.55;101080.97;3508524;40;104855;-40
2021/07/01 01:21:31;;;;;;;11.43;6.75;;;14.70;99.90;;;13.25;92.02;101086.44;3509016;40;103243;-40
2021/07/01 01:24:04;;;;;;;10.00;6.07;;;14.70;99.90;;;13.18;91.73;101078.31;3508682;40;102491;-40
2021/07/01 01:26:34;;;;;;;12.25;6.63;;;14.60;99.90;;;13.26;90.72;101082.66;3509718;40;103199;-42
2021/07/01 01:29:02;;;;;;;11.70;6.07;;;14.70;99.90;;;13.26;91.34;101084.56;3509324;40;102229;-40
2021/07/01 01:31:35;;;;;;;9.73;6.20;;;14.60;99.90;;;13.26;91.42;101079.94;3510181;40;103228;-40
2021/07/01 01:34:05;;;;;;;9.38;6.18;;;14.70;99.90;;;13.21;91.45;101079.72;3516681;40;105355;-40
2021/07/01 01:36:33;;;;;;;13.30;6.72;;;14.60;99.90;;;13.20;90.98;101078.06;3509791;40;103343;-40
2021/07/01 01:39:03;;;;;;;10.48;6.72;;;14.60;99.90;;;13.24;91.46;101076.53;3509460;40;103313;-40
2021/07/01 01:41:40;;;;;;;10.48;6.53;;;14.60;99.90;;;13.16;91.62;101076.84;3509681;40;103260;-40
2021/07/01 01:44:07;;;;;;;11.63;7.03;;;14.60;99.90;;;13.19;91.84;101081.88;3510284;40;103676;-40
2021/07/01 01:46:39;;;;;;;11.63;6.47;;;14.60;99.90;;;13.18;91.69;101069.22;3510099;40;104091;-40
2021/07/01 01:49:09;;;;;;;11.43;6.65;;;14.60;99.90;;;13.18;91.65;101074.72;3508678;40;102455;-40
2021/07/01 01:51:39;;;;;;;11.13;7.47;;;14.60;99.90;;;13.21;91.85;101071.50;3509301;40;103186;-40
2021/07/01 01:54:06;;;;;;;11.93;7.03;;;14.60;99.90;;;13.06;91.46;101056.28;3509275;40;102274;-42
2021/07/01 01:56:45;;;;;;;10.82;7.15;;;14.60;99.90;;;13.16;91.14;101061.25;3508001;40;104131;-40
2021/07/01 01:59:51;;;;;;;12.43;6.95;;;14.60;99.90;;;13.15;91.62;101072.41;3509406;40;102519;-40
2021/07/01 02:02:39;;;;;;;11.38;6.82;;;14.60;99.90;;;13.06;91.80;101067.22;3509798;40;102895;-40
2021/07/01 02:05:31;;;;;;;11.63;7.25;;;14.50;99.90;;;13.11;91.84;101074.75;3508402;40;102494;-40
2021/07/01 02:07:58;;;;;;;14.30;6.57;;;14.50;99.90;;;13.12;91.65;101068.22;3509674;40;102499;-40
2021/07/01 02:10:33;;;;;;;12.60;7.60;;;14.60;99.90;;;13.15;91.41;101069.69;3508570;40;102364;-40
2021/07/01 02:13:03;;;;;;;9.85;6.95;;;14.50;99.90;;;13.16;91.28;101072.22;3508344;40;104166;-42
2021/07/01 02:15:32;;;;;;;11.60;6.88;;;14.60;99.90;;;13.13;91.65;101069.06;3508345;40;103605;-40
2021/07/01 02:17:59;;;;;;;11.20;7.10;;;14.60;99.90;;;13.15;91.61;101073.28;3508386;40;102194;-40
2021/07/01 02:20:28;;;;;;;11.43;7.13;;;14.60;99.90;;;13.09;91.35;101063.19;3508958;40;102533;-40
2021/07/01 02:22:57;;;;;;;10.48;6.35;;;14.50;99.90;;;13.03;91.64;101064.09;3508311;40;102391;-41
2021/07/01 02:25:34;;;;;;;11.60;6.95;;;14.50;99.90;;;13.06;91.59;101072.72;3509176;40;104811;-40
2021/07/01 02:28:20;;;;;;;12.52;7.40;;;14.50;99.90;;;13.04;91.39;101073.97;3509583;40;103058;-40
2021/07/01 02:31:14;;;;;;;13.25;7.88;;;14.50;99.90;;;13.05;91.86;101064.69;3497314;40;102336;-40
2021/07/01 02:33:42;;;;;;;10.98;7.97;;;14.40;99.90;;;13.07;91.91;101068.91;3509825;40;102198;-41
2021/07/01 02:36:10;;;;;;;12.50;7.90;;;14.50;99.90;;;13.08;91.44;101059.63;3507770;40;104880;-41
2021/07/01 02:38:56;;;;;;;13.95;7.95;;;14.50;99.90;;;13.04;91.31;101063.03;3509257;40;102300;-40
2021/07/01 02:41:24;;;;;;;11.82;7.82;;;14.50;99.90;;;13.07;91.41;101063.44;3508194;40;103227;-40
2021/07/01 02:43:54;;;;;;;14.60;7.88;;;14.50;99.90;;;13.05;91.41;101068.28;3516538;40;102679;-39
2021/07/01 02:46:40;;;;;;;12.05;7.75;;;14.50;99.90;;;13.04;91.69;101069.34;3509136;40;102451;-40
2021/07/01 02:49:15;;;;;;;14.57;8.00;;;14.50;99.90;;;13.03;91.66;101072.31;3508103;40;103127;-40
2021/07/01 02:51:47;;;;;;;18.25;8.60;;;14.40;99.90;;;13.00;91.99;101067.28;3507925;40;102624;-40
2021/07/01 02:54:15;;;;;;;15.10;8.63;;;14.40;99.90;;;12.98;92.35;101070.22;3508516;40;102850;-40
2021/07/01 02:56:44;;;;;;;13.07;8.52;;;14.40;99.90;;;12.97;92.74;101074.03;3508199;40;105552;-40
2021/07/01 02:59:15;;;;;;;12.85;8.20;;;14.40;99.90;;;12.97;92.66;101073.19;3508233;40;102282;-40
2021/07/01 03:02:09;;;;;;;15.68;9.02;;;14.40;99.90;;;12.93;92.97;101072.78;3509064;40;102243;-40
2021/07/01 03:04:53;;;;;;;14.02;8.52;;;14.40;99.90;;;12.97;93.51;101076.75;3507583;40;102228;-40
2021/07/01 03:07:21;;;;;;;14.45;8.57;;;14.40;99.90;;;12.94;93.60;101071.72;3507953;40;102551;-40
2021/07/01 03:09:49;;;;;;;14.73;8.95;;;14.40;99.90;;;12.93;93.44;101070.06;3510460;40;103173;-40
2021/07/01 03:12:17;;;;;;;14.90;8.35;;;14.40;99.90;;;12.91;93.33;101070.28;3510883;40;102728;-41
2021/07/01 03:14:45;;;;;;;14.88;8.75;;;14.30;99.90;;;12.95;93.97;101073.41;3509448;40;104266;-40
2021/07/01 03:17:12;;;;;;;16.67;9.07;;;14.40;99.90;;;12.99;93.13;101069.16;3510484;40;102392;-40
2021/07/01 03:19:40;;;;;;;16.50;8.93;;;14.40;99.90;;;12.93;92.70;101062.69;3509528;40;103334;-40
2021/07/01 03:22:26;;;;;;;14.18;8.65;;;14.40;99.90;;;12.94;93.27;101069.00;3510481;40;102103;-40
2021/07/01 03:24:55;;;;;;;15.15;8.77;;;14.30;99.90;;;12.93;nan;101070.91;3509030;40;102573;-41
2021/07/01 03:27:22;;;;;;;14.82;8.68;;;14.40;99.90;;;12.94;93.17;101069.00;3510534;40;102493;-39
2021/07/01 03:29:50;;;;;;;14.70;8.65;;;14.30;99.90;;;12.93;92.86;101070.06;3509339;40;102372;-40
2021/07/01 03:32:18;;;;;;;15.40;8.65;;;14.30;99.90;;;12.88;93.35;101067.16;3510379;40;102450;-41
2021/07/01 03:34:45;;;;;;;13.93;8.85;;;14.40;99.90;;;12.91;93.26;101072.19;3510160;40;103308;-40
2021/07/01 03:37:17;;;;;;;15.63;8.80;;;14.30;99.90;;;12.91;93.12;101077.66;3509377;40;102298;-39
2021/07/01 03:40:23;;;;;;;13.77;8.23;;;14.30;99.90;;;12.90;93.31;101074.09;3492997;40;102300;-40
2021/07/01 03:42:50;;;;;;;13.75;8.18;;;14.30;99.90;;;12.89;93.58;101079.78;3498276;40;102543;-40
2021/07/01 03:45:18;;;;;;;15.77;7.95;;;14.30;99.90;;;12.89;93.65;101077.91;3498226;40;102394;-40
2021/07/01 03:47:45;;;;;;;16.23;8.63;;;14.30;99.90;;;12.93;93.88;101078.28;3510077;40;102117;-40
2021/07/01 03:50:13;;;;;;;12.70;7.35;;;14.30;99.90;;;12.88;93.46;101075.38;3510140;40;104169;-40
2021/07/01 03:53:08;;;;;;;12.30;7.38;;;14.30;99.90;;;12.90;94.08;101075.97;3509149;40;102407;-40
2021/07/01 03:55:35;;;;;;;12.02;7.45;;;14.30;99.90;;;12.90;94.05;101074.09;3509904;40;102338;-40
2021/07/01 03:58:03;;;;;;;13.80;7.82;;;14.30;99.90;;;12.93;93.81;101089.22;3517374;40;102525;-40
2021/07/01 04:00:32;;;;;;;12.15;6.88;;;14.30;99.90;;;12.90;93.79;101084.19;3510794;40;102218;-40
2021/07/01 04:03:04;;;;;;;12.20;7.90;;;14.30;99.90;;;12.92;93.45;101080.19;3517421;40;102567;-40
2021/07/01 04:05:49;;;;;;;14.05;8.02;;;14.30;99.90;;;12.86;92.88;101072.84;3510104;40;102279;-40
2021/07/01 04:08:18;;;;;;;12.82;7.70;;;14.30;99.90;;;12.88;93.26;101087.16;3510264;40;102675;-40
2021/07/01 04:10:51;;;;;;;11.90;7.50;;;14.30;99.90;;;12.89;93.77;101088.84;3509508;40;104218;-40
2021/07/01 04:13:20;;;;;;;15.18;7.90;;;14.30;99.90;;;12.94;93.84;101088.16;3501191;40;102418;-40
2021/07/01 04:16:06;;;;;;;14.75;7.15;;;14.30;99.90;;;12.97;93.30;101090.44;3510250;40;102347;-40
2021/07/01 04:18:54;;;;;;;11.15;6.65;;;14.40;99.90;;;12.93;nan;101092.81;3505773;40;102972;-40
2021/07/01 04:21:41;;;;;;;13.05;6.75;;;14.30;99.90;;;12.98;92.59;101091.31;3510289;40;102798;-40
2021/07/01 04:24:27;;;;;;;13.48;7.18;;;14.40;99.90;;;12.98;92.24;101100.34;3510157;40;102219;-40
2021/07/01 04:27:10;;;;;;;13.52;6.30;;;14.40;99.90;;;12.96;92.48;101099.72;3517166;40;102346;-40
2021/07/01 04:29:41;;;;;;;15.73;6.85;;;14.40;99.90;;;12.93;93.51;101098.28;3508970;40;102760;-40
2021/07/01 04:32:12;;;;;;;9.73;6.10;;;14.40;99.90;;;12.97;92.59;101106.06;3510286;40;104114;-40
2021/07/01 04:34:40;;;;;;;;;;;14.40;99.90;;;12.95;91.77;101104.38;3509440;40;102421;-40
2021/07/01 04:37:08;;;;;;;17.02;7.07;;;14.40;99.90;;;13.00;91.72;101103.72;3509148;40;104413;-40
2021/07/01 04:39:46;;;;;;;15.57;7.28;;;14.40;99.90;;;12.96;91.86;101099.72;3517250;40;103118;-40
2021/07/01 04:42:17;;;;;;;11.88;6.47;;;14.40;99.90;;;12.98;91.75;101103.09;3509088;40;103131;-40
2021/07/01 04:44:44;;;;;;;15.55;7.45;;;14.40;99.90;;;12.94;91.53;101099.13;3509953;40;103619;-40
2021/07/01 04:47:13;;;;;;;15.07;8.05;;;14.30;99.90;;;12.96;91.32;101102.47;3509024;40;103173;-40
2021/07/01 04:49:47;;;;;;;13.15;7.18;;;14.40;99.90;;;12.94;91.66;101104.59;3508674;40;102514;-40
2021/07/01 04:52:21;;;;;;;13.68;7.45;;;14.30;99.90;;;12.98;91.88;101103.09;3510061;40;102146;-40
2021/07/01 04:55:27;;;;;;;12.15;7.70;;;14.30;99.90;;;12.98;91.87;101092.13;3469223;40;102236;-40
2021/07/01 04:58:04;;;;;;;16.08;8.05;;;14.40;99.90;;;13.03;92.20;101106.03;3469282;40;102243;-41
2021/07/01 05:00:35;;;;;;;12.57;7.55;;;14.40;99.90;;;13.05;92.15;101097.56;3491547;40;103302;-40
2021/07/01 05:03:35;;;;;;;16.33;7.40;;;14.40;99.90;;;13.09;92.63;101099.66;3503566;40;102923;-41
2021/07/01 05:06:04;;;;;;;16.80;8.48;;;14.50;99.90;;;13.07;91.09;101101.78;3508757;40;102294;-40
2021/07/01 05:08:34;;;;;;;14.98;7.75;;;14.40;99.90;;;13.06;91.62;101101.97;3508807;40;103464;-40
2021/07/01 05:11:02;;;;;;;15.25;9.27;;;14.40;99.90;;;13.05;90.96;101095.69;3508590;40;102320;-41
2021/07/01 05:13:30;;;;;;;17.52;9.00;;;14.40;99.90;;;13.11;91.64;101096.66;3517312;40;103408;-40
2021/07/01 05:15:58;;;;;;;15.52;8.90;;;14.50;99.90;;;13.08;91.28;101105.34;3508752;40;102405;-40
2021/07/01 05:18:26;;;;;;;16.38;8.98;;;14.50;99.90;;;13.18;91.21;101104.84;3510128;40;102236;-40
2021/07/01 05:21:13;;;;;;;15.30;7.95;;;14.50;99.90;;;13.16;90.92;101106.97;3509920;40;102714;-40
2021/07/01 05:23:59;;;;;;;14.93;7.80;;;14.50;99.90;;;13.12;90.81;101109.31;3509989;40;102857;-39
2021/07/01 05:26:47;;;;;;;16.73;8.88;;;14.50;99.90;;;13.15;90.48;101110.78;3493707;40;104227;-40
2021/07/01 05:29:53;;;;;;;17.42;8.82;;;14.50;99.90;;;13.09;90.86;101104.28;3488179;40;102233;-41
2021/07/01 05:32:48;;;;;;;14.73;8.23;;;14.50;99.90;;;13.09;91.24;101104.28;3488324;40;102230;-41
2021/07/01 05:35:26;;;;;;;14.27;7.60;;;14.50;99.90;;;13.15;90.70;101099.81;3503783;40;103196;-40
2021/07/01 05:37:56;;;;;;;13.43;7.65;;;14.50;99.90;;;13.14;90.45;101096.25;3510305;40;102375;-40
2021/07/01 05:40:26;;;;;;;13.38;8.13;;;14.50;99.90;;;13.18;91.04;101096.63;3509768;40;102351;-40
2021/07/01 05:42:56;;;;;;;19.75;8.68;;;14.50;99.90;;;13.12;90.50;101103.81;3508463;40;102340;-40
2021/07/01 05:45:24;;;;;;;14.35;8.63;;;14.50;99.90;;;13.18;89.91;101097.47;3508662;40;104037;-40
2021/07/01 05:47:52;;;;;;;;;;;14.50;99.90;;;13.17;90.12;101103.16;3510543;40;102763;-40
2021/07/01 05:50:20;;;;;;;17.42;9.02;;;14.50;99.90;;;13.14;89.97;101100.88;3510282;39;102172;-42
2021/07/01 05:53:01;;;;;;;19.33;9.85;;;14.50;99.90;;;13.12;90.44;101103.00;3509907;40;102520;-40
2021/07/01 05:55:29;;;;;;;17.13;10.07;;;14.50;99.90;;;13.06;89.65;101101.97;3509665;40;104421;-40
2021/07/01 05:57:57;;;;;;;17.58;9.38;;;14.50;99.90;;;13.09;90.92;101096.06;3509556;40;102411;-40
2021/07/01 06:00:25;;;;;;;20.80;10.52;;;14.40;99.90;;;13.17;90.86;101105.91;3509825;39;102305;-39
2021/07/01 06:02:52;;;;;;;18.48;9.50;;;14.50;99.90;;;13.13;90.51;101100.06;3509550;40;102459;-40
2021/07/01 06:05:20;;;;;;;18.50;9.27;;;14.50;99.90;;;13.14;90.43;101103.63;3509237;40;102716;-42
2021/07/01 06:08:10;;;;;;;19.65;9.93;;;14.50;99.90;;;13.19;90.75;101096.41;3508489;40;102435;-41
2021/07/01 06:10:40;;;;;;;19.83;10.25;;;14.50;99.90;;;13.25;90.50;101105.63;3509604;40;102319;-40
2021/07/01 06:13:10;;;;;;;19.92;10.32;;;14.60;99.90;;;13.31;89.92;101106.63;3509301;40;102560;-40
2021/07/01 06:15:38;;;;;;;20.25;10.35;;;14.60;99.90;;;13.27;89.42;101116.38;3509093;40;104237;-40
2021/07/01 06:18:06;;;;;;;22.95;10.93;;;14.60;99.90;;;13.32;89.14;101111.03;3509539;40;102185;-40
2021/07/01 06:20:33;;;;;;;21.70;10.55;;;14.70;99.90;;;13.35;89.73;101119.66;3509173;40;103151;-40
2021/07/01 06:23:00;;;;;;;17.98;10.68;;;14.70;99.90;;;13.34;89.19;101118.00;3509191;40;102369;-40
2021/07/01 06:25:28;;;;;;;20.08;9.90;;;14.70;99.90;;;13.31;88.63;101118.44;3509099;40;104035;-40
2021/07/01 06:27:57;;;;;;;16.25;9.77;;;14.70;99.90;;;13.25;88.43;101111.09;3509445;40;102580;-40
2021/07/01 06:30:24;;;;;;;18.75;9.80;;;14.70;99.90;;;13.22;87.59;101126.09;3509499;40;104294;-40
2021/07/01 06:32:56;;;;;;;18.20;8.90;;;14.60;99.90;;;13.33;88.50;101126.44;3508124;40;102488;-42
2021/07/01 06:35:26;;;;;;;15.95;8.68;;;14.70;99.90;;;13.31;88.18;101123.94;3509240;40;104605;-40
2021/07/01 06:38:11;;;;;;;16.45;8.38;;;14.70;99.90;;;13.32;88.16;101125.59;3508264;40;102208;-40
2021/07/01 06:41:02;;;;;;;14.85;8.35;;;14.60;99.90;;;13.42;88.75;101122.38;3509273;40;102394;-40
2021/07/01 06:43:50;;;;;;;18.25;8.82;;;14.70;99.90;;;13.48;88.06;101120.63;3510589;40;102355;-41
2021/07/01 06:46:37;;;;;;;17.55;9.15;;;14.80;99.90;;;13.44;87.59;101127.63;3511109;40;102342;-40
2021/07/01 06:49:29;;;;;;;19.70;8.20;;;14.80;99.90;;;13.50;87.55;101126.72;3510341;40;102172;-40
2021/07/01 06:52:16;;;;;;;13.90;8.57;;;14.80;99.90;;;13.55;86.59;101131.53;3510599;40;102212;-40
2021/07/01 06:55:02;;;;;;;13.70;7.95;;;14.80;99.90;;;13.63;87.42;101126.63;3510965;40;102225;-40
2021/07/01 06:57:43;;;;;;;16.48;8.35;;;14.90;99.90;;;13.68;85.93;101136.06;3510604;40;103134;-41
2021/07/01 07:00:18;;;;;;;15.38;8.35;;;14.90;99.90;;;13.75;86.49;101139.56;3648696;22;105376;-41
2021/07/01 07:02:47;;;;;;;15.93;7.97;;;15.00;99.90;;;13.78;85.85;101141.84;3520049;40;105019;-44
2021/07/01 07:05:17;;;;;;;16.70;7.90;;;15.10;99.90;;;13.81;85.60;101133.22;3519959;40;102396;-42
2021/07/01 07:07:48;;;;;;;14.48;8.23;;;15.10;99.90;;;13.80;84.66;101137.00;3519917;40;102391;-41
2021/07/01 07:10:19;;;;;;;18.83;8.55;;;15.10;99.90;;;13.85;85.18;101142.66;3511085;40;102192;-41
2021/07/01 07:12:49;;;;;;;19.30;8.50;;;15.10;99.90;;;13.83;84.78;101141.19;3501108;40;105985;-41
2021/07/01 07:15:27;;;;;;;21.55;8.68;;;15.10;99.90;;;13.75;84.39;101140.44;3509653;40;102292;-44
2021/07/01 07:18:05;;;;;;;13.63;8.20;;;15.10;99.90;;;13.73;83.72;101144.44;3510279;40;103339;-43
2021/07/01 07:20:40;;;;;;;17.77;8.48;;;15.10;99.90;;;13.72;84.14;101138.13;3510244;40;102923;-41
2021/07/01 07:23:10;;;;;;;14.65;8.18;;;15.00;99.90;;;13.74;84.83;101138.75;3509698;40;103272;-41
2021/07/01 07:25:40;;;;;;;14.80;8.48;;;15.10;99.90;;;13.80;84.57;101132.34;3510157;40;102385;-41
2021/07/01 07:28:10;;;;;;;12.95;7.70;;;15.10;99.90;;;13.85;84.88;101137.16;3509734;40;103214;-42
2021/07/01 07:30:39;;;;;;;12.05;7.60;;;15.10;99.90;;;13.92;84.88;101140.66;3510460;40;102247;-41
2021/07/01 07:33:10;;;;;;;12.70;7.60;;;15.20;99.90;;;13.99;85.14;101137.00;3509638;40;103334;-42
2021/07/01 07:35:38;;;;;;;20.83;8.45;;;15.20;99.90;;;13.94;83.63;101144.03;3509667;40;102471;-41
2021/07/01 07:38:08;;;;;;;14.75;7.47;;;15.20;99.90;;;13.89;82.71;101138.38;3510163;40;104124;-41
2021/07/01 07:40:40;;;;;;;15.85;7.13;;;15.20;99.90;;;14.02;84.48;101142.03;3509827;40;102404;-42
2021/07/01 07:43:15;;;;;;;13.63;7.10;;;15.30;99.90;;;14.06;83.62;101141.38;3509958;40;102413;-42
2021/07/01 07:45:43;;;;;;;12.23;6.60;;;15.30;99.90;;;14.16;84.51;101145.47;3501419;40;102266;-41
2021/07/01 07:48:11;;;;;;;11.07;6.43;;;15.40;99.90;;;14.18;82.17;101149.66;3510104;40;102756;-41
2021/07/01 07:50:40;;;;;;;14.40;7.03;;;15.50;99.90;;;14.22;82.76;101148.13;3510347;40;102407;-41
2021/07/01 07:53:17;;;;;;;13.20;6.70;;;15.50;99.90;;;14.22;82.69;101150.88;3509853;40;103457;-41
2021/07/01 07:55:50;;;;;;;13.77;7.97;;;15.50;99.90;;;14.15;80.53;101141.03;3509665;40;102586;-41
2021/07/01 07:58:24;;;;;;;16.20;7.38;;;15.50;99.90;;;14.12;81.22;101144.25;3509719;40;102630;-41
2021/07/01 08:00:52;;;;;;;12.88;7.75;;;15.50;99.90;;;14.20;82.06;101146.72;3510847;40;102573;-42
2021/07/01 08:03:20;;;;;;;16.33;8.07;;;15.50;99.90;;;14.29;82.08;101150.81;3510511;40;102299;-41
2021/07/01 08:05:48;;;;;;;10.60;7.22;;;15.50;99.90;;;14.34;80.98;101152.88;3510102;40;102498;-41
2021/07/01 08:08:16;;;;;;;;;;;15.60;99.90;;;14.32;81.31;101146.75;3510455;40;103330;-42
2021/07/01 08:10:45;;;;;;;16.27;7.78;;;15.60;99.90;;;14.34;80.83;101148.22;3510038;40;102151;-41
2021/07/01 08:13:14;;;;;;;14.10;7.00;;;15.60;99.90;;;14.27;79.65;101149.34;3509749;40;102302;-42
2021/07/01 08:15:42;;;;;;;13.77;7.40;;;15.60;99.90;;;14.27;80.89;101143.88;3510254;40;102420;-42
2021/07/01 08:18:28;;;;;;;11.23;7.32;;;15.60;99.90;;;14.33;81.59;101145.72;3509331;40;102165;-41
2021/07/01 08:20:56;;;;;;;15.02;7.20;;;15.60;99.90;;;14.35;81.21;101149.06;3509823;40;103373;-44
2021/07/01 08:23:24;;;;;;;13.57;7.20;;;15.60;99.90;;;14.33;80.40;101152.03;3509939;40;104132;-41
2021/07/01 08:25:53;;;;;;;;;;;15.60;99.90;;;14.41;82.13;101150.03;3510394;40;102499;-42
2021/07/01 08:28:22;;;;;;;14.75;7.40;;;15.60;99.90;;;14.45;80.65;101157.59;3509649;40;102178;-42
2021/07/01 08:30:50;;;;;;;12.80;7.07;;;15.70;99.90;;;14.40;81.75;101154.69;3509580;40;102559;-41
2021/07/01 08:33:19;;;;;;;;;;;15.70;99.90;;;14.42;81.46;101159.94;3510097;40;102111;-42
2021/07/01 08:36:01;;;;;;;12.55;6.72;;;15.70;99.90;;;14.44;82.25;101164.16;3510238;40;102381;-42
2021/07/01 08:38:39;;;;;;;14.55;6.70;;;15.70;99.90;;;14.49;81.28;101158.78;3510122;40;104446;-41
2021/07/01 08:41:29;;;;;;;11.93;6.55;;;15.70;99.90;;;14.51;80.74;101158.56;3510003;40;102319;-43
2021/07/01 08:44:01;;;;;;;15.32;7.63;;;15.80;99.90;;;14.46;80.42;101169.41;3509600;40;102268;-39
2021/07/01 08:47:05;;;;;;;13.00;6.78;;;15.70;99.90;;;14.43;79.59;101173.44;3510187;40;102497;-42
2021/07/01 08:49:46;;;;;;;12.00;6.25;;;15.70;99.90;;;14.39;81.49;101178.56;3510078;40;104079;-41
2021/07/01 08:52:15;;;;;;;12.80;5.68;;;15.70;99.90;;;14.31;80.16;101173.38;3510072;40;102674;-41
2021/07/01 08:54:44;;;;;;;11.07;5.27;;;15.70;99.90;;;14.31;79.95;101173.38;3509796;40;104366;-45
2021/07/01 08:57:15;;;;;;;9.60;5.70;;;15.60;99.90;;;14.31;80.24;101180.75;3510072;40;102370;-41
2021/07/01 08:59:54;;;;;;;8.18;5.05;;;15.60;99.90;;;14.33;81.05;101179.47;3509580;40;105161;-41
2021/07/01 09:02:36;;;;;;;10.80;5.20;;;15.60;99.90;;;14.33;81.32;101178.66;3509596;40;102073;-42
2021/07/01 09:05:16;;;;;;;8.55;5.15;;;15.60;99.90;;;14.23;80.99;101188.22;3509079;40;102415;-45
2021/07/01 09:07:54;;;;;;;9.90;5.25;;;15.50;99.90;;;14.22;80.98;101181.06;3509766;40;102251;-42
2021/07/01 09:10:22;;;;;;;10.90;4.90;;;15.50;99.90;;;14.18;80.38;101177.09;3500211;40;103344;-43
2021/07/01 09:12:56;;;;;;;11.38;5.20;;;15.50;99.90;;;14.21;81.48;101189.53;3509344;40;103164;-46
2021/07/01 09:15:27;;;;;;;10.05;4.72;;;15.50;99.90;;;14.20;79.99;101190.63;3509792;40;103182;-41
2021/07/01 09:17:55;;;;;;;9.43;4.85;;;15.50;99.90;;;14.23;80.91;101184.66;3509782;40;102080;-44
2021/07/01 09:20:39;;;;;;;8.50;4.90;;;15.50;99.90;;;14.27;80.42;101190.53;3509557;40;102828;-42
2021/07/01 09:23:09;;;;;;;7.78;4.40;;;15.60;99.90;;;14.22;80.23;101183.81;3509754;40;103349;-43
2021/07/01 09:25:40;;;;;;;8.88;4.57;;;15.50;99.90;;;14.27;80.21;101196.00;3508967;40;102252;-41
2021/07/01 09:28:08;;;;;;;9.18;4.53;;;15.50;99.90;;;14.33;79.78;101186.88;3509180;40;102273;-41
2021/07/01 09:30:36;;;;;;;11.35;4.80;;;15.60;99.90;;;14.32;79.33;101191.53;3509447;40;102822;-41
2021/07/01 09:33:07;;;;;;;8.90;4.75;;;15.60;99.90;;;14.42;79.18;101192.88;3509814;40;103561;-41
2021/07/01 09:35:37;;;;;;;12.60;4.43;;;15.70;99.90;;;14.52;79.51;101193.19;3509652;40;104064;-41
2021/07/01 09:38:10;;;;;;;7.70;4.50;;;15.70;99.90;;;14.64;80.07;101196.00;3509491;40;102722;-41
2021/07/01 09:40:39;;;;;;;11.02;5.60;;;15.80;99.90;;;14.66;78.52;101194.69;3509568;40;102394;-42
2021/07/01 09:43:08;;;;;;;8.90;4.68;;;15.90;99.90;;;14.71;79.87;101195.94;3509193;40;102530;-41
2021/07/01 09:45:37;;;;;;;10.05;5.25;;;15.90;99.90;;;14.74;79.82;101196.31;3508496;40;103272;-43
2021/07/01 09:48:12;;;;;;;14.68;5.50;;;15.90;99.90;;;14.76;79.04;101193.34;3509619;40;103276;-41
2021/07/01 09:50:46;;;;;;;8.95;4.50;;;16.00;99.90;;;14.86;80.01;101195.56;3509706;40;103166;-44
2021/07/01 09:53:28;;;;;;;13.10;5.15;;;16.10;99.90;;;14.87;78.60;101191.72;3509465;40;102349;-41
2021/07/01 09:55:57;;;;;;;8.88;4.60;;;16.10;99.90;;;14.83;78.38;101188.59;3509114;40;102302;-41
2021/07/01 09:58:31;;;;;;;12.00;5.50;;;16.10;99.90;;;14.81;78.52;101188.81;3509206;40;103401;-42
2021/07/01 10:00:59;;;;;;;11.23;5.30;;;16.10;99.90;;;14.78;78.22;101196.69;3509642;40;103225;-42
2021/07/01 10:03:27;;;;;;;12.23;5.18;;;16.00;99.90;;;14.70;77.79;101200.56;3509542;40;102438;-41
2021/07/01 10:05:54;;;;;;;12.63;4.97;;;16.00;99.90;;;14.65;77.34;101200.44;3509007;40;102359;-41
2021/07/01 10:08:38;;;;;;;9.80;4.25;;;15.90;99.90;;;14.68;78.24;101199.97;3509198;40;102222;-41
2021/07/01 10:11:08;;;;;;;12.52;5.07;;;16.00;99.90;;;14.70;78.22;101206.06;3509340;40;104108;-41
2021/07/01 10:13:36;;;;;;;12.32;5.22;;;16.00;99.90;;;14.65;78.50;101204.00;3509242;40;102435;-44
2021/07/01 10:16:04;;;;;;;10.48;4.82;;;15.90;99.90;;;14.61;78.37;101202.78;3509114;40;103284;-42
2021/07/01 10:18:43;;;;;;;12.10;4.75;;;15.90;99.90;;;14.60;78.13;101198.38;3509910;40;102734;-42
2021/07/01 10:21:15;;;;;;;11.32;4.60;;;15.90;99.90;;;14.65;78.60;101204.00;3510231;40;102198;-43
2021/07/01 10:23:44;;;;;;;10.65;4.68;;;15.90;99.90;;;14.71;78.79;101202.28;3501604;40;102593;-44
2021/07/01 10:26:16;;;;;;;11.10;5.00;;;15.90;99.90;;;14.78;76.73;101204.94;3501050;40;102306;-43
2021/07/01 10:29:00;;;;;;;11.25;4.97;;;16.00;99.90;;;14.80;78.13;101206.38;3510044;40;102482;-41